sensor_id;sensor_type;location;lat;lon;timestamp;P1;durP1;ratioP1;P2;durP2;ratioP2
43504;SDS011;29098;48.184;16.298;2023-08-21T00:01:13;11.13;;;8.68;;
43504;SDS011;29098;48.184;16.298;2023-08-21T00:03:39;16.90;;;9.32;;
43504;SDS011;29098;48.184;16.298;2023-08-21T00:06:04;11.95;;;7.97;;
43504;SDS011;29098;48.184;16.298;2023-08-21T00:08:33;10.25;;;7.50;;
43504;SDS011;29098;48.184;16.298;2023-08-21T00:11:00;9.55;;;8.48;;
43504;SDS011;29098;48.184;16.298;2023-08-21T00:13:26;10.77;;;8.13;;
43504;SDS011;29098;48.184;16.298;2023-08-21T00:15:51;11.73;;;7.60;;
43504;SDS011;29098;48.184;16.298;2023-08-21T00:18:17;10.82;;;8.05;;
43504;SDS011;29098;48.184;16.298;2023-08-21T00:20:42;9.98;;;7.63;;
43504;SDS011;29098;48.184;16.298;2023-08-21T00:23:08;9.75;;;7.88;;
43504;SDS011;29098;48.184;16.298;2023-08-21T00:25:34;10.48;;;7.97;;
43504;SDS011;29098;48.184;16.298;2023-08-21T00:27:59;11.02;;;8.80;;
43504;SDS011;29098;48.184;16.298;2023-08-21T00:30:25;10.82;;;8.40;;
43504;SDS011;29098;48.184;16.298;2023-08-21T00:32:50;9.25;;;8.25;;
43504;SDS011;29098;48.184;16.298;2023-08-21T00:35:16;10.07;;;8.02;;
43504;SDS011;29098;48.184;16.298;2023-08-21T00:37:41;12.25;;;8.23;;
43504;SDS011;29098;48.184;16.298;2023-08-21T00:40:07;11.95;;;8.73;;
43504;SDS011;29098;48.184;16.298;2023-08-21T00:42:33;10.15;;;8.13;;
43504;SDS011;29098;48.184;16.298;2023-08-21T00:44:58;11.65;;;8.30;;
43504;SDS011;29098;48.184;16.298;2023-08-21T00:47:24;11.18;;;8.55;;
43504;SDS011;29098;48.184;16.298;2023-08-21T00:49:50;10.63;;;8.70;;
43504;SDS011;29098;48.184;16.298;2023-08-21T00:52:15;10.50;;;8.23;;
43504;SDS011;29098;48.184;16.298;2023-08-21T00:54:42;10.68;;;8.57;;
43504;SDS011;29098;48.184;16.298;2023-08-21T00:57:09;13.98;;;8.52;;
43504;SDS011;29098;48.184;16.298;2023-08-21T00:59:35;11.00;;;8.63;;
43504;SDS011;29098;48.184;16.298;2023-08-21T01:02:02;10.38;;;8.02;;
43504;SDS011;29098;48.184;16.298;2023-08-21T01:04:28;11.13;;;8.07;;
43504;SDS011;29098;48.184;16.298;2023-08-21T01:06:53;10.57;;;8.45;;
43504;SDS011;29098;48.184;16.298;2023-08-21T01:12:09;11.07;;;8.02;;
43504;SDS011;29098;48.184;16.298;2023-08-21T01:17:18;11.88;;;8.27;;
43504;SDS011;29098;48.184;16.298;2023-08-21T01:19:46;10.88;;;8.32;;
43504;SDS011;29098;48.184;16.298;2023-08-21T01:22:16;12.88;;;8.75;;
43504;SDS011;29098;48.184;16.298;2023-08-21T01:24:44;11.73;;;8.18;;
43504;SDS011;29098;48.184;16.298;2023-08-21T01:27:10;12.35;;;8.68;;
43504;SDS011;29098;48.184;16.298;2023-08-21T01:29:39;10.48;;;8.30;;
43504;SDS011;29098;48.184;16.298;2023-08-21T01:34:57;9.55;;;8.23;;
43504;SDS011;29098;48.184;16.298;2023-08-21T01:37:24;11.57;;;8.80;;
43504;SDS011;29098;48.184;16.298;2023-08-21T01:39:51;9.55;;;8.15;;
43504;SDS011;29098;48.184;16.298;2023-08-21T01:42:16;10.65;;;8.30;;
43504;SDS011;29098;48.184;16.298;2023-08-21T01:44:42;11.48;;;8.43;;
43504;SDS011;29098;48.184;16.298;2023-08-21T01:47:11;10.48;;;8.80;;
43504;SDS011;29098;48.184;16.298;2023-08-21T01:49:37;12.25;;;8.35;;
43504;SDS011;29098;48.184;16.298;2023-08-21T01:52:02;12.13;;;8.82;;
43504;SDS011;29098;48.184;16.298;2023-08-21T01:54:28;9.52;;;8.15;;
43504;SDS011;29098;48.184;16.298;2023-08-21T01:56:54;10.23;;;8.35;;
43504;SDS011;29098;48.184;16.298;2023-08-21T01:59:19;11.80;;;7.85;;
43504;SDS011;29098;48.184;16.298;2023-08-21T02:01:45;11.02;;;8.15;;
43504;SDS011;29098;48.184;16.298;2023-08-21T02:04:11;10.75;;;8.93;;
43504;SDS011;29098;48.184;16.298;2023-08-21T02:06:36;9.15;;;7.20;;
43504;SDS011;29098;48.184;16.298;2023-08-21T02:09:02;10.57;;;8.45;;
43504;SDS011;29098;48.184;16.298;2023-08-21T02:11:27;10.75;;;8.38;;
43504;SDS011;29098;48.184;16.298;2023-08-21T02:13:53;12.15;;;8.32;;
43504;SDS011;29098;48.184;16.298;2023-08-21T02:16:18;9.70;;;7.45;;
43504;SDS011;29098;48.184;16.298;2023-08-21T02:18:45;11.35;;;8.50;;
43504;SDS011;29098;48.184;16.298;2023-08-21T02:21:10;10.68;;;8.18;;
43504;SDS011;29098;48.184;16.298;2023-08-21T02:23:37;12.10;;;9.10;;
43504;SDS011;29098;48.184;16.298;2023-08-21T02:26:02;11.68;;;8.98;;
43504;SDS011;29098;48.184;16.298;2023-08-21T02:28:28;10.52;;;8.48;;
43504;SDS011;29098;48.184;16.298;2023-08-21T02:30:53;10.10;;;7.68;;
43504;SDS011;29098;48.184;16.298;2023-08-21T02:33:19;9.48;;;7.45;;
43504;SDS011;29098;48.184;16.298;2023-08-21T02:35:44;11.32;;;8.90;;
43504;SDS011;29098;48.184;16.298;2023-08-21T02:38:10;10.57;;;8.05;;
43504;SDS011;29098;48.184;16.298;2023-08-21T02:40:35;12.18;;;8.15;;
43504;SDS011;29098;48.184;16.298;2023-08-21T02:43:01;10.70;;;7.97;;
43504;SDS011;29098;48.184;16.298;2023-08-21T02:45:27;10.45;;;7.88;;
43504;SDS011;29098;48.184;16.298;2023-08-21T02:47:52;10.20;;;8.15;;
43504;SDS011;29098;48.184;16.298;2023-08-21T02:50:18;10.95;;;9.00;;
43504;SDS011;29098;48.184;16.298;2023-08-21T02:52:44;10.95;;;8.25;;
43504;SDS011;29098;48.184;16.298;2023-08-21T02:55:09;9.90;;;8.32;;
43504;SDS011;29098;48.184;16.298;2023-08-21T02:57:34;9.77;;;7.50;;
43504;SDS011;29098;48.184;16.298;2023-08-21T03:00:00;12.23;;;8.63;;
43504;SDS011;29098;48.184;16.298;2023-08-21T03:02:26;13.02;;;8.00;;
43504;SDS011;29098;48.184;16.298;2023-08-21T03:04:52;13.82;;;8.68;;
43504;SDS011;29098;48.184;16.298;2023-08-21T03:07:17;11.50;;;8.00;;
43504;SDS011;29098;48.184;16.298;2023-08-21T03:09:44;9.65;;;7.97;;
43504;SDS011;29098;48.184;16.298;2023-08-21T03:12:12;10.07;;;8.32;;
43504;SDS011;29098;48.184;16.298;2023-08-21T03:14:38;11.55;;;8.63;;
43504;SDS011;29098;48.184;16.298;2023-08-21T03:17:03;12.10;;;9.10;;
43504;SDS011;29098;48.184;16.298;2023-08-21T03:19:29;10.45;;;7.65;;
43504;SDS011;29098;48.184;16.298;2023-08-21T03:21:54;11.48;;;7.82;;
43504;SDS011;29098;48.184;16.298;2023-08-21T03:24:20;11.48;;;9.27;;
43504;SDS011;29098;48.184;16.298;2023-08-21T03:26:47;10.73;;;8.65;;
43504;SDS011;29098;48.184;16.298;2023-08-21T03:29:13;11.30;;;8.38;;
43504;SDS011;29098;48.184;16.298;2023-08-21T03:31:39;10.95;;;8.52;;
43504;SDS011;29098;48.184;16.298;2023-08-21T03:34:04;11.57;;;8.00;;
43504;SDS011;29098;48.184;16.298;2023-08-21T03:36:30;13.13;;;8.25;;
43504;SDS011;29098;48.184;16.298;2023-08-21T03:38:57;9.82;;;7.70;;
43504;SDS011;29098;48.184;16.298;2023-08-21T03:41:23;10.98;;;8.15;;
43504;SDS011;29098;48.184;16.298;2023-08-21T03:43:48;10.55;;;8.35;;
43504;SDS011;29098;48.184;16.298;2023-08-21T03:46:14;11.88;;;8.77;;
43504;SDS011;29098;48.184;16.298;2023-08-21T03:48:39;11.10;;;8.77;;
43504;SDS011;29098;48.184;16.298;2023-08-21T03:51:05;9.93;;;8.15;;
43504;SDS011;29098;48.184;16.298;2023-08-21T03:53:30;11.38;;;8.45;;
43504;SDS011;29098;48.184;16.298;2023-08-21T03:55:56;10.55;;;8.38;;
43504;SDS011;29098;48.184;16.298;2023-08-21T03:58:21;11.77;;;8.55;;
43504;SDS011;29098;48.184;16.298;2023-08-21T04:00:47;11.27;;;8.43;;
43504;SDS011;29098;48.184;16.298;2023-08-21T04:03:12;10.32;;;8.40;;
43504;SDS011;29098;48.184;16.298;2023-08-21T04:05:38;10.40;;;8.13;;
43504;SDS011;29098;48.184;16.298;2023-08-21T04:08:03;9.35;;;8.23;;
43504;SDS011;29098;48.184;16.298;2023-08-21T04:10:29;10.38;;;7.88;;
43504;SDS011;29098;48.184;16.298;2023-08-21T04:12:55;14.88;;;8.73;;
43504;SDS011;29098;48.184;16.298;2023-08-21T04:15:20;10.63;;;9.05;;
43504;SDS011;29098;48.184;16.298;2023-08-21T04:17:46;11.90;;;8.93;;
43504;SDS011;29098;48.184;16.298;2023-08-21T04:20:11;11.52;;;7.93;;
43504;SDS011;29098;48.184;16.298;2023-08-21T04:22:37;11.05;;;7.90;;
43504;SDS011;29098;48.184;16.298;2023-08-21T04:25:02;10.32;;;8.25;;
43504;SDS011;29098;48.184;16.298;2023-08-21T04:27:28;11.38;;;9.32;;
43504;SDS011;29098;48.184;16.298;2023-08-21T04:29:53;12.13;;;8.65;;
43504;SDS011;29098;48.184;16.298;2023-08-21T04:32:19;11.02;;;8.68;;
43504;SDS011;29098;48.184;16.298;2023-08-21T04:34:44;11.25;;;8.70;;
43504;SDS011;29098;48.184;16.298;2023-08-21T04:37:10;12.43;;;8.70;;
43504;SDS011;29098;48.184;16.298;2023-08-21T04:39:35;10.13;;;8.15;;
43504;SDS011;29098;48.184;16.298;2023-08-21T04:42:01;11.20;;;8.60;;
43504;SDS011;29098;48.184;16.298;2023-08-21T04:44:27;11.50;;;7.97;;
43504;SDS011;29098;48.184;16.298;2023-08-21T04:46:52;10.65;;;8.68;;
43504;SDS011;29098;48.184;16.298;2023-08-21T04:49:18;9.95;;;8.00;;
43504;SDS011;29098;48.184;16.298;2023-08-21T04:51:43;13.18;;;8.15;;
43504;SDS011;29098;48.184;16.298;2023-08-21T04:54:09;10.70;;;8.68;;
43504;SDS011;29098;48.184;16.298;2023-08-21T04:56:34;11.45;;;8.02;;
43504;SDS011;29098;48.184;16.298;2023-08-21T04:59:00;11.07;;;8.32;;
43504;SDS011;29098;48.184;16.298;2023-08-21T05:01:25;11.52;;;8.43;;
43504;SDS011;29098;48.184;16.298;2023-08-21T05:03:51;10.50;;;8.40;;
43504;SDS011;29098;48.184;16.298;2023-08-21T05:06:16;11.15;;;8.50;;
43504;SDS011;29098;48.184;16.298;2023-08-21T05:08:42;11.02;;;8.10;;
43504;SDS011;29098;48.184;16.298;2023-08-21T05:11:07;12.80;;;8.63;;
43504;SDS011;29098;48.184;16.298;2023-08-21T05:13:33;13.63;;;9.63;;
43504;SDS011;29098;48.184;16.298;2023-08-21T05:15:58;12.23;;;9.20;;
43504;SDS011;29098;48.184;16.298;2023-08-21T05:18:24;10.63;;;8.27;;
43504;SDS011;29098;48.184;16.298;2023-08-21T05:20:51;11.50;;;7.93;;
43504;SDS011;29098;48.184;16.298;2023-08-21T05:23:21;12.82;;;9.55;;
43504;SDS011;29098;48.184;16.298;2023-08-21T05:25:48;11.93;;;9.25;;
43504;SDS011;29098;48.184;16.298;2023-08-21T05:28:13;11.30;;;8.85;;
43504;SDS011;29098;48.184;16.298;2023-08-21T05:30:39;12.48;;;8.77;;
43504;SDS011;29098;48.184;16.298;2023-08-21T05:33:04;13.32;;;9.02;;
43504;SDS011;29098;48.184;16.298;2023-08-21T05:35:36;13.65;;;8.63;;
43504;SDS011;29098;48.184;16.298;2023-08-21T05:38:05;10.73;;;8.13;;
43504;SDS011;29098;48.184;16.298;2023-08-21T05:40:31;13.55;;;8.20;;
43504;SDS011;29098;48.184;16.298;2023-08-21T05:42:57;12.57;;;8.20;;
43504;SDS011;29098;48.184;16.298;2023-08-21T05:45:23;11.80;;;8.43;;
43504;SDS011;29098;48.184;16.298;2023-08-21T05:47:48;12.30;;;9.15;;
43504;SDS011;29098;48.184;16.298;2023-08-21T05:50:14;10.73;;;8.05;;
43504;SDS011;29098;48.184;16.298;2023-08-21T05:52:39;10.05;;;7.97;;
43504;SDS011;29098;48.184;16.298;2023-08-21T05:55:05;14.20;;;9.95;;
43504;SDS011;29098;48.184;16.298;2023-08-21T05:57:31;12.45;;;8.77;;
43504;SDS011;29098;48.184;16.298;2023-08-21T05:59:56;12.00;;;8.85;;
43504;SDS011;29098;48.184;16.298;2023-08-21T06:02:22;12.00;;;8.35;;
43504;SDS011;29098;48.184;16.298;2023-08-21T06:04:47;13.30;;;9.00;;
43504;SDS011;29098;48.184;16.298;2023-08-21T06:07:13;12.75;;;8.57;;
43504;SDS011;29098;48.184;16.298;2023-08-21T06:09:38;10.50;;;7.80;;
43504;SDS011;29098;48.184;16.298;2023-08-21T06:12:04;10.77;;;8.57;;
43504;SDS011;29098;48.184;16.298;2023-08-21T06:14:30;10.43;;;8.65;;
43504;SDS011;29098;48.184;16.298;2023-08-21T06:16:59;13.25;;;8.85;;
43504;SDS011;29098;48.184;16.298;2023-08-21T06:19:26;11.35;;;8.38;;
43504;SDS011;29098;48.184;16.298;2023-08-21T06:21:52;11.30;;;8.15;;
43504;SDS011;29098;48.184;16.298;2023-08-21T06:24:17;13.02;;;8.77;;
43504;SDS011;29098;48.184;16.298;2023-08-21T06:26:43;12.70;;;8.30;;
43504;SDS011;29098;48.184;16.298;2023-08-21T06:29:09;12.75;;;8.77;;
43504;SDS011;29098;48.184;16.298;2023-08-21T06:31:34;11.70;;;9.00;;
43504;SDS011;29098;48.184;16.298;2023-08-21T06:33:59;10.43;;;7.95;;
43504;SDS011;29098;48.184;16.298;2023-08-21T06:36:25;10.77;;;8.00;;
43504;SDS011;29098;48.184;16.298;2023-08-21T06:38:50;11.32;;;8.52;;
43504;SDS011;29098;48.184;16.298;2023-08-21T06:41:16;12.48;;;8.90;;
43504;SDS011;29098;48.184;16.298;2023-08-21T06:43:41;12.15;;;8.32;;
43504;SDS011;29098;48.184;16.298;2023-08-21T06:46:07;11.82;;;8.88;;
43504;SDS011;29098;48.184;16.298;2023-08-21T06:48:34;12.38;;;8.48;;
43504;SDS011;29098;48.184;16.298;2023-08-21T06:51:00;11.23;;;8.55;;
43504;SDS011;29098;48.184;16.298;2023-08-21T06:53:27;12.77;;;8.52;;
43504;SDS011;29098;48.184;16.298;2023-08-21T06:55:53;11.75;;;9.07;;
43504;SDS011;29098;48.184;16.298;2023-08-21T06:58:19;11.23;;;8.32;;
43504;SDS011;29098;48.184;16.298;2023-08-21T07:00:44;11.40;;;8.00;;
43504;SDS011;29098;48.184;16.298;2023-08-21T07:03:10;10.05;;;8.20;;
43504;SDS011;29098;48.184;16.298;2023-08-21T07:05:36;13.18;;;8.07;;
43504;SDS011;29098;48.184;16.298;2023-08-21T07:08:02;14.38;;;9.85;;
43504;SDS011;29098;48.184;16.298;2023-08-21T07:10:28;10.02;;;7.72;;
43504;SDS011;29098;48.184;16.298;2023-08-21T07:12:54;13.77;;;9.40;;
43504;SDS011;29098;48.184;16.298;2023-08-21T07:15:20;10.90;;;7.78;;
43504;SDS011;29098;48.184;16.298;2023-08-21T07:17:46;10.55;;;8.45;;
43504;SDS011;29098;48.184;16.298;2023-08-21T07:20:11;11.57;;;9.18;;
43504;SDS011;29098;48.184;16.298;2023-08-21T07:22:37;11.18;;;8.45;;
43504;SDS011;29098;48.184;16.298;2023-08-21T07:25:03;10.82;;;8.60;;
43504;SDS011;29098;48.184;16.298;2023-08-21T07:27:32;11.77;;;8.25;;
43504;SDS011;29098;48.184;16.298;2023-08-21T07:29:58;11.48;;;7.85;;
43504;SDS011;29098;48.184;16.298;2023-08-21T07:32:24;11.80;;;7.97;;
43504;SDS011;29098;48.184;16.298;2023-08-21T07:34:53;12.20;;;8.30;;
43504;SDS011;29098;48.184;16.298;2023-08-21T07:37:21;8.55;;;7.28;;
43504;SDS011;29098;48.184;16.298;2023-08-21T07:39:46;11.15;;;7.90;;
43504;SDS011;29098;48.184;16.298;2023-08-21T07:42:12;10.30;;;7.70;;
43504;SDS011;29098;48.184;16.298;2023-08-21T07:44:38;9.68;;;7.90;;
43504;SDS011;29098;48.184;16.298;2023-08-21T07:47:04;10.38;;;8.30;;
43504;SDS011;29098;48.184;16.298;2023-08-21T07:49:30;10.32;;;8.25;;
43504;SDS011;29098;48.184;16.298;2023-08-21T07:51:56;8.30;;;7.05;;
43504;SDS011;29098;48.184;16.298;2023-08-21T07:54:22;10.38;;;8.00;;
43504;SDS011;29098;48.184;16.298;2023-08-21T07:56:47;12.23;;;8.07;;
43504;SDS011;29098;48.184;16.298;2023-08-21T07:59:13;9.30;;;7.10;;
43504;SDS011;29098;48.184;16.298;2023-08-21T08:01:38;8.75;;;7.55;;
43504;SDS011;29098;48.184;16.298;2023-08-21T08:04:04;9.93;;;7.13;;
43504;SDS011;29098;48.184;16.298;2023-08-21T08:06:29;10.18;;;7.15;;
43504;SDS011;29098;48.184;16.298;2023-08-21T08:08:56;12.35;;;7.82;;
43504;SDS011;29098;48.184;16.298;2023-08-21T08:11:22;8.80;;;6.63;;
43504;SDS011;29098;48.184;16.298;2023-08-21T08:13:48;11.82;;;7.55;;
43504;SDS011;29098;48.184;16.298;2023-08-21T08:16:13;8.77;;;6.82;;
43504;SDS011;29098;48.184;16.298;2023-08-21T08:18:39;8.90;;;7.25;;
43504;SDS011;29098;48.184;16.298;2023-08-21T08:21:04;9.00;;;6.97;;
43504;SDS011;29098;48.184;16.298;2023-08-21T08:23:30;9.68;;;7.18;;
43504;SDS011;29098;48.184;16.298;2023-08-21T08:25:55;8.93;;;6.45;;
43504;SDS011;29098;48.184;16.298;2023-08-21T08:28:20;10.88;;;7.55;;
43504;SDS011;29098;48.184;16.298;2023-08-21T08:30:46;9.05;;;6.95;;
43504;SDS011;29098;48.184;16.298;2023-08-21T08:33:11;8.95;;;6.70;;
43504;SDS011;29098;48.184;16.298;2023-08-21T08:35:37;12.32;;;8.07;;
43504;SDS011;29098;48.184;16.298;2023-08-21T08:38:02;13.27;;;7.72;;
43504;SDS011;29098;48.184;16.298;2023-08-21T08:40:28;11.65;;;7.68;;
43504;SDS011;29098;48.184;16.298;2023-08-21T08:42:54;10.20;;;7.75;;
43504;SDS011;29098;48.184;16.298;2023-08-21T08:45:22;11.02;;;7.00;;
43504;SDS011;29098;48.184;16.298;2023-08-21T08:47:55;12.35;;;8.25;;
43504;SDS011;29098;48.184;16.298;2023-08-21T08:50:24;12.68;;;8.65;;
43504;SDS011;29098;48.184;16.298;2023-08-21T08:52:52;9.85;;;7.25;;
43504;SDS011;29098;48.184;16.298;2023-08-21T08:55:18;11.77;;;7.32;;
43504;SDS011;29098;48.184;16.298;2023-08-21T08:57:44;9.30;;;6.97;;
43504;SDS011;29098;48.184;16.298;2023-08-21T09:00:10;9.18;;;6.78;;
43504;SDS011;29098;48.184;16.298;2023-08-21T09:02:36;11.07;;;6.75;;
43504;SDS011;29098;48.184;16.298;2023-08-21T09:05:01;11.10;;;6.63;;
43504;SDS011;29098;48.184;16.298;2023-08-21T09:07:27;14.45;;;7.68;;
43504;SDS011;29098;48.184;16.298;2023-08-21T09:09:53;9.98;;;6.65;;
43504;SDS011;29098;48.184;16.298;2023-08-21T09:12:19;7.75;;;6.50;;
43504;SDS011;29098;48.184;16.298;2023-08-21T09:14:45;12.25;;;6.63;;
43504;SDS011;29098;48.184;16.298;2023-08-21T09:17:11;8.32;;;6.60;;
43504;SDS011;29098;48.184;16.298;2023-08-21T09:19:37;9.02;;;6.88;;
43504;SDS011;29098;48.184;16.298;2023-08-21T09:24:34;8.73;;;6.13;;
43504;SDS011;29098;48.184;16.298;2023-08-21T09:27:00;9.18;;;6.05;;
43504;SDS011;29098;48.184;16.298;2023-08-21T09:29:26;10.30;;;6.40;;
43504;SDS011;29098;48.184;16.298;2023-08-21T09:32:02;11.48;;;7.25;;
43504;SDS011;29098;48.184;16.298;2023-08-21T09:34:33;7.97;;;5.93;;
43504;SDS011;29098;48.184;16.298;2023-08-21T09:36:59;10.55;;;6.40;;
43504;SDS011;29098;48.184;16.298;2023-08-21T09:39:25;8.95;;;6.05;;
43504;SDS011;29098;48.184;16.298;2023-08-21T09:41:58;9.68;;;6.65;;
43504;SDS011;29098;48.184;16.298;2023-08-21T09:44:24;11.30;;;7.05;;
43504;SDS011;29098;48.184;16.298;2023-08-21T09:46:50;8.77;;;6.55;;
43504;SDS011;29098;48.184;16.298;2023-08-21T09:49:15;13.85;;;7.40;;
43504;SDS011;29098;48.184;16.298;2023-08-21T09:51:42;10.98;;;7.72;;
43504;SDS011;29098;48.184;16.298;2023-08-21T09:54:10;8.32;;;6.28;;
43504;SDS011;29098;48.184;16.298;2023-08-21T09:56:36;8.70;;;6.30;;
43504;SDS011;29098;48.184;16.298;2023-08-21T09:59:02;8.23;;;6.57;;
43504;SDS011;29098;48.184;16.298;2023-08-21T10:01:28;9.57;;;6.70;;
43504;SDS011;29098;48.184;16.298;2023-08-21T10:03:57;9.82;;;6.82;;
43504;SDS011;29098;48.184;16.298;2023-08-21T10:06:25;11.80;;;6.47;;
43504;SDS011;29098;48.184;16.298;2023-08-21T10:08:53;9.43;;;6.78;;
43504;SDS011;29098;48.184;16.298;2023-08-21T10:11:20;9.77;;;6.50;;
43504;SDS011;29098;48.184;16.298;2023-08-21T10:13:48;9.20;;;6.93;;
43504;SDS011;29098;48.184;16.298;2023-08-21T10:16:16;8.73;;;6.78;;
43504;SDS011;29098;48.184;16.298;2023-08-21T10:18:43;9.23;;;6.70;;
43504;SDS011;29098;48.184;16.298;2023-08-21T10:21:14;8.77;;;6.75;;
43504;SDS011;29098;48.184;16.298;2023-08-21T10:23:42;8.88;;;5.95;;
43504;SDS011;29098;48.184;16.298;2023-08-21T10:26:12;8.80;;;7.18;;
43504;SDS011;29098;48.184;16.298;2023-08-21T10:28:43;8.20;;;6.88;;
43504;SDS011;29098;48.184;16.298;2023-08-21T10:31:25;8.57;;;6.53;;
43504;SDS011;29098;48.184;16.298;2023-08-21T10:34:00;9.55;;;7.03;;
43504;SDS011;29098;48.184;16.298;2023-08-21T10:36:36;8.82;;;6.15;;
43504;SDS011;29098;48.184;16.298;2023-08-21T10:39:25;9.10;;;6.88;;
43504;SDS011;29098;48.184;16.298;2023-08-21T10:42:02;11.98;;;6.30;;
43504;SDS011;29098;48.184;16.298;2023-08-21T10:47:14;7.75;;;5.70;;
43504;SDS011;29098;48.184;16.298;2023-08-21T10:49:41;11.43;;;6.22;;
43504;SDS011;29098;48.184;16.298;2023-08-21T10:52:08;6.88;;;5.65;;
43504;SDS011;29098;48.184;16.298;2023-08-21T10:54:50;12.07;;;6.00;;
43504;SDS011;29098;48.184;16.298;2023-08-21T10:57:17;9.48;;;6.18;;
43504;SDS011;29098;48.184;16.298;2023-08-21T11:02:37;7.85;;;6.25;;
43504;SDS011;29098;48.184;16.298;2023-08-21T11:05:04;8.32;;;6.20;;
43504;SDS011;29098;48.184;16.298;2023-08-21T11:07:31;11.93;;;7.32;;
43504;SDS011;29098;48.184;16.298;2023-08-21T11:10:02;8.10;;;5.88;;
43504;SDS011;29098;48.184;16.298;2023-08-21T11:12:28;8.70;;;6.40;;
43504;SDS011;29098;48.184;16.298;2023-08-21T11:14:54;8.30;;;5.47;;
43504;SDS011;29098;48.184;16.298;2023-08-21T11:17:19;9.02;;;6.45;;
43504;SDS011;29098;48.184;16.298;2023-08-21T11:19:45;8.35;;;6.38;;
43504;SDS011;29098;48.184;16.298;2023-08-21T11:22:13;10.73;;;6.50;;
43504;SDS011;29098;48.184;16.298;2023-08-21T11:24:40;8.18;;;5.82;;
43504;SDS011;29098;48.184;16.298;2023-08-21T11:27:16;7.70;;;6.25;;
43504;SDS011;29098;48.184;16.298;2023-08-21T11:29:47;8.23;;;5.78;;
43504;SDS011;29098;48.184;16.298;2023-08-21T11:32:15;10.15;;;5.63;;
43504;SDS011;29098;48.184;16.298;2023-08-21T11:34:53;9.50;;;6.50;;
43504;SDS011;29098;48.184;16.298;2023-08-21T11:37:21;7.45;;;5.13;;
43504;SDS011;29098;48.184;16.298;2023-08-21T11:39:52;10.18;;;5.57;;
43504;SDS011;29098;48.184;16.298;2023-08-21T11:42:21;6.95;;;5.00;;
43504;SDS011;29098;48.184;16.298;2023-08-21T11:44:53;8.82;;;4.90;;
43504;SDS011;29098;48.184;16.298;2023-08-21T11:47:19;7.68;;;4.85;;
43504;SDS011;29098;48.184;16.298;2023-08-21T11:49:47;7.05;;;4.43;;
43504;SDS011;29098;48.184;16.298;2023-08-21T11:52:21;8.02;;;5.30;;
43504;SDS011;29098;48.184;16.298;2023-08-21T11:54:51;5.93;;;5.05;;
43504;SDS011;29098;48.184;16.298;2023-08-21T11:57:17;5.57;;;4.90;;
43504;SDS011;29098;48.184;16.298;2023-08-21T11:59:49;6.57;;;4.57;;
43504;SDS011;29098;48.184;16.298;2023-08-21T12:02:21;7.68;;;4.80;;
43504;SDS011;29098;48.184;16.298;2023-08-21T12:04:52;6.20;;;4.57;;
43504;SDS011;29098;48.184;16.298;2023-08-21T12:07:28;8.95;;;5.95;;
43504;SDS011;29098;48.184;16.298;2023-08-21T12:09:53;7.00;;;4.50;;
43504;SDS011;29098;48.184;16.298;2023-08-21T12:12:19;7.18;;;4.45;;
43504;SDS011;29098;48.184;16.298;2023-08-21T12:14:44;9.73;;;5.35;;
43504;SDS011;29098;48.184;16.298;2023-08-21T12:17:11;6.95;;;5.15;;
43504;SDS011;29098;48.184;16.298;2023-08-21T12:19:36;6.82;;;5.53;;
43504;SDS011;29098;48.184;16.298;2023-08-21T12:22:02;6.47;;;4.78;;
43504;SDS011;29098;48.184;16.298;2023-08-21T12:24:27;7.38;;;5.25;;
43504;SDS011;29098;48.184;16.298;2023-08-21T12:26:53;7.47;;;5.20;;
43504;SDS011;29098;48.184;16.298;2023-08-21T12:29:18;9.00;;;5.35;;
43504;SDS011;29098;48.184;16.298;2023-08-21T12:31:43;6.85;;;4.75;;
43504;SDS011;29098;48.184;16.298;2023-08-21T12:34:09;7.97;;;5.78;;
43504;SDS011;29098;48.184;16.298;2023-08-21T12:36:35;8.70;;;5.45;;
43504;SDS011;29098;48.184;16.298;2023-08-21T12:39:02;6.40;;;4.97;;
43504;SDS011;29098;48.184;16.298;2023-08-21T12:41:28;7.63;;;5.22;;
43504;SDS011;29098;48.184;16.298;2023-08-21T12:43:54;7.55;;;4.50;;
43504;SDS011;29098;48.184;16.298;2023-08-21T12:46:19;6.28;;;4.50;;
43504;SDS011;29098;48.184;16.298;2023-08-21T12:48:45;6.65;;;4.47;;
43504;SDS011;29098;48.184;16.298;2023-08-21T12:51:10;7.78;;;4.50;;
43504;SDS011;29098;48.184;16.298;2023-08-21T12:53:36;7.85;;;4.90;;
43504;SDS011;29098;48.184;16.298;2023-08-21T12:56:01;7.10;;;4.68;;
43504;SDS011;29098;48.184;16.298;2023-08-21T12:58:28;6.25;;;4.55;;
43504;SDS011;29098;48.184;16.298;2023-08-21T13:00:54;8.90;;;5.20;;
43504;SDS011;29098;48.184;16.298;2023-08-21T13:03:19;8.20;;;4.53;;
43504;SDS011;29098;48.184;16.298;2023-08-21T13:05:45;6.03;;;4.97;;
43504;SDS011;29098;48.184;16.298;2023-08-21T13:08:11;7.85;;;4.90;;
43504;SDS011;29098;48.184;16.298;2023-08-21T13:10:36;6.20;;;4.35;;
43504;SDS011;29098;48.184;16.298;2023-08-21T13:13:01;9.55;;;4.85;;
43504;SDS011;29098;48.184;16.298;2023-08-21T13:15:28;7.20;;;4.93;;
43504;SDS011;29098;48.184;16.298;2023-08-21T13:17:53;8.88;;;4.65;;
43504;SDS011;29098;48.184;16.298;2023-08-21T13:20:19;7.70;;;4.55;;
43504;SDS011;29098;48.184;16.298;2023-08-21T13:22:45;7.93;;;4.65;;
43504;SDS011;29098;48.184;16.298;2023-08-21T13:25:12;6.60;;;4.68;;
43504;SDS011;29098;48.184;16.298;2023-08-21T13:27:38;6.80;;;4.32;;
43504;SDS011;29098;48.184;16.298;2023-08-21T13:30:03;8.63;;;4.70;;
43504;SDS011;29098;48.184;16.298;2023-08-21T13:32:30;6.05;;;4.53;;
43504;SDS011;29098;48.184;16.298;2023-08-21T13:34:56;8.10;;;4.35;;
43504;SDS011;29098;48.184;16.298;2023-08-21T13:37:21;5.53;;;4.15;;
43504;SDS011;29098;48.184;16.298;2023-08-21T13:39:47;6.20;;;4.55;;
43504;SDS011;29098;48.184;16.298;2023-08-21T13:42:13;5.60;;;4.22;;
43504;SDS011;29098;48.184;16.298;2023-08-21T13:44:38;6.55;;;4.43;;
43504;SDS011;29098;48.184;16.298;2023-08-21T13:47:04;4.63;;;3.50;;
43504;SDS011;29098;48.184;16.298;2023-08-21T13:49:30;5.10;;;3.70;;
43504;SDS011;29098;48.184;16.298;2023-08-21T13:51:55;6.15;;;3.63;;
43504;SDS011;29098;48.184;16.298;2023-08-21T13:54:20;5.38;;;4.05;;
43504;SDS011;29098;48.184;16.298;2023-08-21T13:56:46;6.15;;;4.07;;
43504;SDS011;29098;48.184;16.298;2023-08-21T13:59:11;6.75;;;4.20;;
43504;SDS011;29098;48.184;16.298;2023-08-21T14:01:37;5.00;;;3.22;;
43504;SDS011;29098;48.184;16.298;2023-08-21T14:04:03;5.18;;;3.30;;
43504;SDS011;29098;48.184;16.298;2023-08-21T14:06:28;5.15;;;3.20;;
43504;SDS011;29098;48.184;16.298;2023-08-21T14:08:54;8.30;;;3.75;;
43504;SDS011;29098;48.184;16.298;2023-08-21T14:11:21;4.90;;;3.30;;
43504;SDS011;29098;48.184;16.298;2023-08-21T14:13:47;5.13;;;3.42;;
43504;SDS011;29098;48.184;16.298;2023-08-21T14:16:12;3.85;;;2.80;;
43504;SDS011;29098;48.184;16.298;2023-08-21T14:18:38;5.38;;;3.67;;
43504;SDS011;29098;48.184;16.298;2023-08-21T14:21:03;4.68;;;3.08;;
43504;SDS011;29098;48.184;16.298;2023-08-21T14:23:29;7.90;;;4.30;;
43504;SDS011;29098;48.184;16.298;2023-08-21T14:25:54;5.70;;;4.25;;
43504;SDS011;29098;48.184;16.298;2023-08-21T14:28:20;6.72;;;3.50;;
43504;SDS011;29098;48.184;16.298;2023-08-21T14:30:45;7.93;;;3.25;;
43504;SDS011;29098;48.184;16.298;2023-08-21T14:33:12;4.82;;;3.25;;
43504;SDS011;29098;48.184;16.298;2023-08-21T14:35:37;4.60;;;3.08;;
43504;SDS011;29098;48.184;16.298;2023-08-21T14:38:03;5.45;;;3.22;;